River Junction, Iowa
Current Conditions -  °F | °C
As of 8:52 PM on Thursday 25 Dec 2014 (Local Time) from KIOW Reporting Station
Clear Clear  
Wind Chill: 31°   Ceiling: Unl
Heat Index: 37°   Visibility: 10mi
Dew Point: 32°   Wind: 8mph
Humidity: 82%   Direction: 130°SE
Pressure: 29.88"   Gusts: NA
Location:  41.5156°N, 91.4411°W
Report Text: KIOW 260252Z AUTO 13007KT 10SM CLR 03/00 A2988 RMK AO2 SLP124 T00280000 51009
Loading
Personal Weather Stations






























Interactive Weather Map New forecast layout! Learn more

10-Day Weather Forecast

Advertisements
Track Severe Weather on mobile